Haast, New Zealand
Current Conditions -  °F | °C
As of 7:30 PM on Tuesday 21 Oct 2014 (Local Time) from NZCH Reporting Station
Few Clouds Few Clouds  
Wind Chill: 52°   Ceiling: Unl
Heat Index: 52°   Visibility: 6mi
Dew Point: 41°   Wind: 5mph
Humidity: 67%   Direction: 60°ENE
Pressure: 30.15"   Gusts: NA
Location:  43.88°S, 169.04°E
Report Text: NZCH 210730Z AUTO 06004KT 9999 FEW100/// 11/05 Q1021 NOSIG
Loading
Personal Weather Stations






























Interactive Weather Map
Tropical Storm Tracking
New forecast layout! Learn more

10-Day Weather Forecast

Advertisements
Track Severe Weather on mobile